Time;durP1;ratioP1;P1;durP2;ratioP2;P2;SDS_P1;SDS_P2;PMS_P1;PMS_P2;Temp;Humidity;BMP_temperature;BMP_pressure;BME280_temperature;BME280_humidity;BME280_pressure;Samples;Min_cycle;Max_cycle;Signal;HPM_P1;HPM_P2
2021/09/04 00:01:38;;;;;;;7.67;6.30;;;;;;;13.38;74.55;95737.28;6152897;23;20613;-80
2021/09/04 00:04:04;;;;;;;8.33;6.60;;;;;;;13.41;74.39;95737.75;6152415;23;20179;-78
2021/09/04 00:06:29;;;;;;;7.47;6.67;;;;;;;13.42;74.65;95741.19;6152992;23;20593;-77
2021/09/04 00:08:54;;;;;;;8.67;6.90;;;;;;;13.45;74.80;95738.25;6154570;23;20210;-78
2021/09/04 00:11:20;;;;;;;9.43;7.03;;;;;;;13.45;75.13;95738.25;6153378;23;20457;-77
2021/09/04 00:13:45;;;;;;;10.47;6.77;;;;;;;13.43;75.37;95729.75;6154022;23;20656;-79
2021/09/04 00:16:10;;;;;;;9.47;7.00;;;;;;;13.48;75.61;95733.53;6155199;23;20640;-78
2021/09/04 00:18:36;;;;;;;9.57;7.50;;;;;;;13.45;75.75;95733.03;6155026;23;20692;-79
2021/09/04 00:21:01;;;;;;;7.47;6.77;;;;;;;13.43;76.04;95740.19;6156272;23;20156;-79
2021/09/04 00:23:28;;;;;;;9.27;6.53;;;;;;;13.41;75.77;95732.53;6156349;23;20203;-80
2021/09/04 00:25:53;;;;;;;9.13;7.40;;;;;;;13.42;75.96;95735.97;6154928;23;20294;-79
2021/09/04 00:28:18;;;;;;;7.57;6.77;;;;;;;13.42;76.05;95725.53;6154645;23;20155;-79
2021/09/04 00:30:44;;;;;;;10.80;7.00;;;;;;;13.41;76.14;95731.72;6156639;23;20485;-77
2021/09/04 00:33:09;;;;;;;9.90;6.87;;;;;;;13.53;75.98;95731.28;6130600;23;20217;-80
2021/09/04 00:35:34;;;;;;;11.03;7.63;;;;;;;13.62;75.79;95731.28;6154082;23;20187;-78
2021/09/04 00:38:00;;;;;;;8.17;6.67;;;;;;;13.54;75.89;95726.88;6155195;23;20159;-79
2021/09/04 00:40:25;;;;;;;10.57;7.60;;;;;;;13.56;75.68;95730.94;6154678;23;20488;-78
2021/09/04 00:42:50;;;;;;;9.07;7.83;;;;;;;13.60;76.04;95728.81;6154796;23;20162;-79
2021/09/04 00:45:16;;;;;;;9.53;7.17;;;;;;;13.63;76.16;95720.69;6154123;23;20943;-78
2021/09/04 00:48:00;;;;;;;9.23;7.43;;;;;;;13.62;76.14;95726.88;6155150;23;20155;-78
2021/09/04 00:50:27;;;;;;;9.17;7.43;;;;;;;13.68;76.16;95728.00;6154882;23;20189;-80
2021/09/04 00:52:52;;;;;;;11.10;8.77;;;;;;;13.63;76.60;95725.91;6154694;23;20151;-80
2021/09/04 00:55:18;;;;;;;7.40;6.70;;;;;;;13.65;76.54;95728.34;6127086;23;20210;-80
2021/09/04 00:57:43;;;;;;;8.87;7.40;;;;;;;13.69;76.37;95727.03;6154662;23;20497;-79
2021/09/04 01:00:09;;;;;;;9.40;7.50;;;;;;;13.64;76.51;95727.53;6154771;23;20635;-80
2021/09/04 01:02:34;;;;;;;10.10;7.37;;;;;;;13.64;76.79;95727.53;6156568;23;20166;-78
2021/09/04 01:05:00;;;;;;;8.17;7.07;;;;;;;13.67;76.72;95726.38;6153893;23;20171;-80
2021/09/04 01:07:25;;;;;;;8.27;6.73;;;;;;;13.60;76.88;95726.19;6155971;23;20151;-78
2021/09/04 01:09:51;;;;;;;8.10;6.93;;;;;;;13.51;77.07;95725.38;6129936;23;20514;-80
2021/09/04 01:12:16;;;;;;;8.67;7.33;;;;;;;13.45;77.41;95720.00;6154765;23;20201;-79
2021/09/04 01:14:41;;;;;;;7.83;6.87;;;;;;;13.39;77.67;95724.06;6153747;23;20179;-78
2021/09/04 01:17:07;;;;;;;10.90;7.57;;;;;;;13.36;77.87;95715.75;6154495;23;20171;-78
2021/09/04 01:19:32;;;;;;;8.80;7.43;;;;;;;13.33;78.17;95712.47;6155943;23;20158;-80
2021/09/04 01:21:58;;;;;;;9.37;7.40;;;;;;;13.28;78.12;95714.75;6156461;23;20605;-79
2021/09/04 01:24:23;;;;;;;10.27;7.53;;;;;;;13.17;78.43;95709.81;6156026;23;20625;-78
2021/09/04 01:26:49;;;;;;;9.90;7.20;;;;;;;13.08;78.88;95708.16;6156788;23;20155;-80
2021/09/04 01:29:14;;;;;;;8.20;7.30;;;;;;;13.13;79.20;95703.28;6155023;23;20464;-80
2021/09/04 01:31:40;;;;;;;8.60;7.37;;;;;;;13.08;79.38;95699.53;6155022;23;20166;-78
2021/09/04 01:34:06;;;;;;;8.33;7.50;;;;;;;13.09;79.58;95701.97;6154128;23;20179;-78
2021/09/04 01:36:35;;;;;;;10.10;7.37;;;;;;;13.05;79.93;95708.47;6154849;23;20574;-78
2021/09/04 01:39:01;;;;;;;8.90;7.70;;;;;;;13.07;80.06;95701.28;6154794;23;20605;-77
2021/09/04 01:41:27;;;;;;;10.20;7.80;;;;;;;13.02;80.16;95714.81;6155237;23;20155;-78
2021/09/04 01:43:53;;;;;;;10.00;7.53;;;;;;;12.95;80.06;95705.19;6153813;23;20392;-79
2021/09/04 01:46:18;;;;;;;10.30;6.87;;;;;;;12.89;80.33;95713.63;6130117;23;20290;-77
2021/09/04 01:48:43;;;;;;;11.47;7.13;;;;;;;12.93;80.36;95704.53;6155208;23;20492;-79
2021/09/04 01:51:09;;;;;;;8.63;7.70;;;;;;;12.95;80.57;95707.78;6154772;23;20163;-80
2021/09/04 01:53:34;;;;;;;9.53;7.43;;;;;;;12.97;80.50;95698.00;6152123;23;20234;-78
2021/09/04 01:56:00;;;;;;;9.20;7.37;;;;;;;12.88;80.50;95699.78;6153904;23;20266;-80
2021/09/04 01:58:25;;;;;;;8.73;7.73;;;;;;;12.84;80.72;95693.25;6155827;23;20306;-79
2021/09/04 02:00:51;;;;;;;8.40;7.10;;;;;;;12.84;80.95;95693.25;6156372;23;20152;-78
2021/09/04 02:03:16;;;;;;;9.53;8.03;;;;;;;12.82;80.84;95689.19;6155870;23;20171;-79
2021/09/04 02:05:41;;;;;;;9.50;7.73;;;;;;;12.81;81.14;95688.38;6153515;23;20175;-81
2021/09/04 02:08:07;;;;;;;10.63;7.27;;;;;;;12.84;80.99;95692.44;6155017;23;20214;-79
2021/09/04 02:10:32;;;;;;;9.50;8.27;;;;;;;12.92;80.59;95689.88;6154771;23;20155;-79
2021/09/04 02:12:57;;;;;;;9.63;7.87;;;;;;;13.05;80.22;95696.25;6154697;23;20163;-79
2021/09/04 02:15:23;;;;;;;10.07;8.43;;;;;;;13.13;80.09;95692.03;6154192;23;20502;-80
2021/09/04 02:17:48;;;;;;;10.40;7.73;;;;;;;13.02;80.16;95690.53;6155245;23;20162;-82
2021/09/04 02:20:13;;;;;;;10.60;7.70;;;;;;;12.98;80.24;95686.59;6154423;23;20162;-79
2021/09/04 02:22:39;;;;;;;8.33;7.43;;;;;;;13.04;79.64;95686.78;6130413;23;20163;-79
2021/09/04 02:25:04;;;;;;;9.37;7.70;;;;;;;13.05;79.68;95687.59;6155002;23;20176;-81
2021/09/04 02:27:30;;;;;;;8.33;7.30;;;;;;;13.04;79.56;95688.59;6154814;23;20178;-81
2021/09/04 02:29:56;;;;;;;9.63;7.37;;;;;;;13.08;79.33;95678.66;6156379;23;20187;-76
2021/09/04 02:32:21;;;;;;;9.63;7.07;;;;;;;13.13;78.91;95681.59;6129922;23;20156;-79
2021/09/04 02:34:46;;;;;;;8.23;7.30;;;;;;;13.11;78.82;95679.16;6153007;23;20707;-80
2021/09/04 02:37:11;;;;;;;9.90;7.40;;;;;;;13.11;78.65;95671.34;6155494;23;20269;-77
2021/09/04 02:39:37;;;;;;;9.93;7.93;;;;;;;13.09;78.63;95677.69;6154432;23;20226;-81
2021/09/04 02:42:02;;;;;;;8.87;7.60;;;;;;;13.07;78.53;95672.63;6154355;23;20179;-78
2021/09/04 02:44:28;;;;;;;8.63;7.10;;;;;;;13.18;78.56;95677.53;6153358;23;20265;-79
2021/09/04 02:46:54;;;;;;;8.40;7.13;;;;;;;13.20;78.00;95678.22;6154029;23;20151;-79
2021/09/04 02:49:19;;;;;;;9.97;7.43;;;;;;;13.15;78.27;95672.63;6129237;23;20217;-77
2021/09/04 02:51:44;;;;;;;11.50;7.63;;;;;;;13.16;78.55;95673.44;6153542;23;20604;-77
2021/09/04 02:54:10;;;;;;;9.70;8.03;;;;;;;13.17;78.60;95673.31;6152586;23;20206;-79
2021/09/04 02:56:36;;;;;;;10.60;8.93;;;;;;;13.20;78.74;95672.19;6155505;23;20178;-80
2021/09/04 02:59:01;;;;;;;10.50;7.67;;;;;;;13.17;78.69;95668.09;6154314;23;20182;-81
2021/09/04 03:01:26;;;;;;;9.53;7.97;;;;;;;13.12;78.61;95674.75;6156834;23;20163;-80
2021/09/04 03:03:52;;;;;;;12.20;7.63;;;;;;;13.06;79.15;95671.00;6154021;23;20517;-80
2021/09/04 03:06:17;;;;;;;8.80;7.50;;;;;;;13.05;79.34;95671.97;6154406;23;20605;-79
2021/09/04 03:08:42;;;;;;;9.23;8.30;;;;;;;12.97;79.51;95662.34;6155485;23;20157;-79
2021/09/04 03:11:07;;;;;;;8.63;7.33;;;;;;;13.02;79.74;95667.91;6154389;23;20139;-80
2021/09/04 03:13:33;;;;;;;8.17;7.33;;;;;;;13.01;79.49;95668.88;6154495;23;20217;-80
2021/09/04 03:15:58;;;;;;;10.10;7.27;;;;;;;12.88;79.62;95665.06;6153839;23;20184;-79
2021/09/04 03:18:24;;;;;;;8.87;7.27;;;;;;;12.77;79.87;95663.59;6155517;23;20152;-80
2021/09/04 03:20:49;;;;;;;8.60;7.00;;;;;;;12.69;80.25;95659.16;6155549;23;20155;-78
2021/09/04 03:23:14;;;;;;;8.30;6.87;;;;;;;12.61;80.80;95666.94;6153827;23;20156;-80
2021/09/04 03:25:39;;;;;;;11.03;8.33;;;;;;;12.64;81.05;95658.03;6153284;23;20175;-80
2021/09/04 03:28:05;;;;;;;10.93;8.30;;;;;;;12.66;81.36;95661.28;6154662;23;20644;-79
2021/09/04 03:30:30;;;;;;;9.97;8.13;;;;;;;12.78;81.48;95662.59;6153685;23;20206;-81
2021/09/04 03:32:56;;;;;;;9.60;7.77;;;;;;;12.86;80.68;95659.22;6154244;23;20159;-78
2021/09/04 03:35:21;;;;;;;9.13;7.97;;;;;;;12.77;80.75;95658.38;6153424;23;20177;-79
2021/09/04 03:37:47;;;;;;;9.30;7.77;;;;;;;12.76;80.97;95654.13;6153947;23;20165;-78
2021/09/04 03:40:12;;;;;;;9.20;7.57;;;;;;;12.80;80.91;95654.63;6153944;23;20163;-79
2021/09/04 03:42:38;;;;;;;9.07;7.63;;;;;;;12.75;80.72;95653.31;6153536;23;20601;-78
2021/09/04 03:45:03;;;;;;;10.50;7.47;;;;;;;12.80;80.53;95649.41;6153618;23;20179;-78
2021/09/04 03:47:30;;;;;;;8.67;7.40;;;;;;;12.69;80.85;95638.31;6153273;23;20164;-80
2021/09/04 03:49:55;;;;;;;9.00;7.23;;;;;;;12.61;80.76;95648.72;6154107;23;20202;-79
2021/09/04 03:52:20;;;;;;;8.53;6.83;;;;;;;12.54;80.92;95642.50;6153645;23;20159;-78
2021/09/04 03:54:46;;;;;;;10.87;7.37;;;;;;;12.47;80.87;95654.53;6151428;23;20587;-78
2021/09/04 03:57:11;;;;;;;9.27;7.90;;;;;;;12.41;81.17;95649.94;6154675;23;20679;-79
2021/09/04 03:59:36;;;;;;;9.13;7.43;;;;;;;12.38;81.58;95647.66;6153985;23;20151;-81
2021/09/04 04:02:02;;;;;;;8.30;7.10;;;;;;;12.36;81.81;95652.19;6153879;23;20163;-80
2021/09/04 04:04:27;;;;;;;8.67;7.77;;;;;;;12.33;81.64;95642.91;6154900;23;20186;-78
2021/09/04 04:06:52;;;;;;;10.10;7.67;;;;;;;12.33;82.11;95644.69;6153585;23;20158;-76
2021/09/04 04:09:17;;;;;;;8.20;7.37;;;;;;;12.32;81.84;95643.88;6155155;23;20156;-77
2021/09/04 04:11:43;;;;;;;9.53;7.83;;;;;;;12.26;81.87;95646.28;6152326;23;20597;-78
2021/09/04 04:14:08;;;;;;;11.87;7.60;;;;;;;12.24;81.90;95650.84;6153543;23;20171;-76
2021/09/04 04:16:33;;;;;;;9.23;7.93;;;;;;;12.17;82.17;95643.63;6153360;23;20182;-77
2021/09/04 04:18:59;;;;;;;10.73;7.47;;;;;;;12.11;82.49;95639.06;6153719;23;20156;-79
2021/09/04 04:21:24;;;;;;;11.23;6.80;;;;;;;12.10;82.62;95641.78;6152691;23;20679;-78
2021/09/04 04:23:49;;;;;;;10.20;6.60;;;;;;;12.02;82.85;95634.78;6160173;23;20245;-79
2021/09/04 04:26:15;;;;;;;8.60;6.73;;;;;;;11.97;82.88;95634.41;6155253;23;20151;-77
2021/09/04 04:28:40;;;;;;;11.63;7.53;;;;;;;11.97;83.62;95642.22;6153629;23;20258;-77
2021/09/04 04:31:05;;;;;;;8.73;7.80;;;;;;;11.97;83.29;95631.81;6153687;23;20163;-79
2021/09/04 04:33:31;;;;;;;10.03;7.50;;;;;;;11.99;83.27;95637.69;6153700;23;20493;-82
2021/09/04 04:35:56;;;;;;;8.73;7.10;;;;;;;11.99;83.47;95644.66;6154129;23;20175;-77
2021/09/04 04:38:22;;;;;;;9.37;7.47;;;;;;;12.01;83.51;95638.34;6152940;23;20159;-77
2021/09/04 04:40:47;;;;;;;9.53;7.70;;;;;;;12.01;83.68;95647.94;6152823;23;20155;-77
2021/09/04 04:43:12;;;;;;;8.87;7.97;;;;;;;11.99;83.87;95648.09;6152422;23;20178;-78
2021/09/04 04:45:38;;;;;;;8.83;7.90;;;;;;;12.02;83.71;95642.59;6152192;23;20541;-79
2021/09/04 04:48:04;;;;;;;10.47;8.30;;;;;;;12.04;83.72;95645.03;6154021;23;20162;-78
2021/09/04 04:50:29;;;;;;;10.60;8.03;;;;;;;12.05;83.68;95647.47;6152823;23;20162;-78
2021/09/04 04:52:54;;;;;;;11.67;7.93;;;;;;;12.14;83.53;95648.34;6151949;23;20253;-79
2021/09/04 04:55:20;;;;;;;11.90;9.13;;;;;;;12.13;83.80;95647.53;6150812;23;20194;-78
2021/09/04 04:57:45;;;;;;;11.83;8.77;;;;;;;12.16;83.68;95655.03;6153364;23;20151;-77
2021/09/04 05:00:11;;;;;;;8.93;7.83;;;;;;;12.20;83.90;95655.53;6130311;23;20170;-80
2021/09/04 05:02:38;;;;;;;13.60;8.93;;;;;;;12.27;83.27;95653.13;6156126;23;20489;-79
2021/09/04 05:05:03;;;;;;;10.87;8.40;;;;;;;12.34;83.15;95654.13;6153974;23;20175;-78
2021/09/04 05:07:29;;;;;;;11.60;8.60;;;;;;;12.37;82.86;95653.84;6154147;23;20489;-79
2021/09/04 05:09:54;;;;;;;9.20;8.17;;;;;;;12.47;82.71;95654.53;6156067;23;20158;-80
2021/09/04 05:12:19;;;;;;;9.07;7.73;;;;;;;12.55;82.15;95657.16;6154007;23;20202;-77
2021/09/04 05:14:45;;;;;;;9.93;8.70;;;;;;;12.70;81.85;95655.56;6153641;23;20226;-80
2021/09/04 05:17:10;;;;;;;10.33;8.40;;;;;;;12.88;81.90;95659.88;6154885;23;20171;-77
2021/09/04 05:19:35;;;;;;;11.90;9.30;;;;;;;12.91;81.96;95651.75;6154672;23;20218;-79
2021/09/04 05:22:00;;;;;;;12.37;10.13;;;;;;;12.96;81.94;95655.50;6154095;23;20218;-78
2021/09/04 05:24:26;;;;;;;11.30;9.83;;;;;;;13.02;81.87;95659.25;6155777;23;20187;-79
2021/09/04 05:26:52;;;;;;;13.17;9.97;;;;;;;13.11;81.93;95658.31;6156392;23;20151;-80
2021/09/04 05:29:17;;;;;;;9.83;8.77;;;;;;;13.16;81.88;95653.41;6158295;23;20151;-80
2021/09/04 05:31:42;;;;;;;10.50;9.37;;;;;;;13.21;82.08;95656.38;6158493;23;20151;-79
2021/09/04 05:34:07;;;;;;;10.30;9.27;;;;;;;13.28;82.39;95665.19;6129575;23;20179;-77
2021/09/04 05:36:33;;;;;;;11.03;9.23;;;;;;;13.29;82.36;95666.84;6153373;23;20171;-78
2021/09/04 05:38:58;;;;;;;11.60;8.97;;;;;;;13.31;82.36;95666.66;6129902;23;20161;-77
2021/09/04 05:41:24;;;;;;;9.53;8.53;;;;;;;13.37;82.40;95663.41;6157822;23;20162;-78
2021/09/04 05:43:49;;;;;;;10.17;8.53;;;;;;;13.42;82.45;95661.13;6155638;23;20663;-78
2021/09/04 05:46:14;;;;;;;11.53;8.47;;;;;;;13.52;82.50;95667.03;6154408;23;20148;-78
2021/09/04 05:48:40;;;;;;;13.20;8.83;;;;;;;13.58;82.36;95671.56;6155313;23;20151;-79
2021/09/04 05:51:05;;;;;;;9.80;8.70;;;;;;;13.62;82.26;95672.09;6155242;23;20578;-78
2021/09/04 05:53:30;;;;;;;11.73;9.37;;;;;;;13.70;82.01;95677.31;6155236;23;20491;-79
2021/09/04 05:55:56;;;;;;;11.37;9.03;;;;;;;13.78;81.28;95679.06;6154135;23;20187;-80
2021/09/04 05:58:24;;;;;;;12.10;9.57;;;;;;;13.81;80.41;95676.97;6155635;23;20155;-81
2021/09/04 06:00:52;;;;;;;9.47;8.10;;;;;;;13.89;80.76;95676.97;6153690;23;20245;-78
2021/09/04 06:03:18;;;;;;;12.13;10.10;;;;;;;14.04;80.55;95678.88;6154085;23;20155;-79
2021/09/04 06:05:43;;;;;;;12.23;9.63;;;;;;;14.18;79.70;95673.00;6153033;23;20237;-78
2021/09/04 06:08:09;;;;;;;15.70;9.73;;;;;;;14.33;79.41;95675.75;6153843;23;20167;-78
2021/09/04 06:10:34;;;;;;;13.53;10.10;;;;;;;14.46;78.85;95676.03;6153500;23;20190;-78
2021/09/04 06:12:59;;;;;;;11.10;9.37;;;;;;;14.56;78.43;95673.22;6153946;23;20166;-77
2021/09/04 06:15:25;;;;;;;9.93;8.93;;;;;;;14.69;77.72;95666.50;6152421;23;20190;-77
2021/09/04 06:17:50;;;;;;;10.00;8.93;;;;;;;14.79;77.47;95666.28;6153750;23;20164;-79
2021/09/04 06:20:16;;;;;;;10.57;9.40;;;;;;;14.87;77.37;95666.25;6153706;23;20226;-78
2021/09/04 06:22:42;;;;;;;10.90;8.77;;;;;;;14.93;77.31;95662.13;6153470;23;20163;-80
2021/09/04 06:25:08;;;;;;;9.97;8.40;;;;;;;14.99;77.12;95662.25;6153022;23;20628;-78
2021/09/04 06:27:33;;;;;;;11.93;9.00;;;;;;;15.07;76.56;95663.19;6128887;23;20155;-78
2021/09/04 06:29:58;;;;;;;10.60;9.33;;;;;;;15.20;76.04;95660.84;6151781;23;20608;-84
2021/09/04 06:32:25;;;;;;;11.05;9.10;;;;;;;15.26;75.70;95665.38;6153482;23;20151;-81
2021/09/04 06:34:50;;;;;;;11.70;9.10;;;;;;;15.38;75.26;95666.63;6152169;23;20909;-80
2021/09/04 06:37:15;;;;;;;9.15;8.25;;;;;;;15.55;75.18;95667.31;6152662;23;20270;-80
2021/09/04 06:39:41;;;;;;;9.70;8.70;;;;;;;15.56;75.44;95664.50;6152988;23;20609;-80
2021/09/04 06:42:06;;;;;;;11.93;9.73;;;;;;;15.64;74.68;95665.47;6152947;23;20173;-80
2021/09/04 06:44:32;;;;;;;9.35;8.45;;;;;;;15.70;74.01;95667.38;6152073;23;20183;-80
2021/09/04 06:46:58;;;;;;;9.40;8.15;;;;;;;15.80;73.22;95676.59;6153043;23;20478;-80
2021/09/04 06:49:23;;;;;;;8.77;7.70;;;;;;;15.85;73.35;95668.22;6153146;23;20194;-80
2021/09/04 06:51:48;;;;;;;8.80;7.75;;;;;;;15.91;73.66;95666.72;6152844;23;20506;-80
2021/09/04 06:54:14;;;;;;;9.88;7.60;;;;;;;15.92;73.67;95666.53;6152013;23;20245;-80
2021/09/04 06:56:39;;;;;;;10.45;8.55;;;;;;;15.97;73.48;95668.59;6152643;23;20171;-81
2021/09/04 06:59:05;;;;;;;10.02;8.30;;;;;;;16.06;72.83;95670.97;6154900;23;20158;-80
2021/09/04 07:01:30;;;;;;;10.20;8.63;;;;;;;16.07;72.68;95677.03;6152864;23;20155;-80
2021/09/04 07:03:55;;;;;;;9.43;8.40;;;;;;;16.15;71.74;95672.53;6151928;23;20706;-80
2021/09/04 07:06:21;;;;;;;9.48;8.15;;;;;;;16.21;71.16;95678.06;6128253;23;20155;-80
2021/09/04 07:08:46;;;;;;;10.57;8.05;;;;;;;16.17;71.89;95677.59;6154240;23;20163;-80
2021/09/04 07:11:11;;;;;;;11.02;8.02;;;;;;;16.28;71.33;95674.53;6155248;23;20174;-81
2021/09/04 07:13:38;;;;;;;9.05;7.78;;;;;;;16.38;71.32;95682.94;6153142;23;20158;-81
2021/09/04 07:16:03;;;;;;;9.45;7.40;;;;;;;16.41;71.21;95681.75;6153743;23;20711;-81
2021/09/04 07:18:29;;;;;;;9.60;8.48;;;;;;;16.48;70.57;95684.47;6154443;23;20155;-81
2021/09/04 07:20:54;;;;;;;8.88;7.97;;;;;;;16.56;70.60;95679.97;6154171;23;20155;-81
2021/09/04 07:23:19;;;;;;;7.88;7.07;;;;;;;16.68;69.96;95685.56;6155301;23;20155;-80
2021/09/04 07:25:45;;;;;;;10.32;7.50;;;;;;;16.73;69.74;95691.13;6147968;23;20210;-81
2021/09/04 07:28:10;;;;;;;10.73;7.53;;;;;;;16.81;69.34;95688.41;6151359;23;20145;-81
2021/09/04 07:30:36;;;;;;;10.95;8.02;;;;;;;16.87;68.36;95692.06;6151890;23;20240;-81
2021/09/04 07:33:02;;;;;;;9.07;8.10;;;;;;;16.96;67.97;95691.81;6153925;23;20163;-82
2021/09/04 07:35:27;;;;;;;8.57;7.68;;;;;;;17.08;67.55;95696.59;6152637;23;20812;-81
2021/09/04 07:37:53;;;;;;;10.85;7.93;;;;;;;17.18;66.69;95697.09;6153694;23;20158;-81
2021/09/04 07:40:18;;;;;;;9.57;7.75;;;;;;;17.32;66.91;95703.31;6154509;23;20163;-81
2021/09/04 07:42:43;;;;;;;8.30;7.28;;;;;;;17.34;66.77;95702.13;6129349;23;20159;-81
2021/09/04 07:45:09;;;;;;;8.82;7.93;;;;;;;17.50;66.02;95699.28;6153057;23;20198;-81
2021/09/04 07:47:34;;;;;;;8.23;7.40;;;;;;;17.45;65.56;95708.72;6128805;23;20232;-82
2021/09/04 07:50:00;;;;;;;14.02;8.10;;;;;;;17.43;65.98;95703.66;6153838;23;20233;-81
2021/09/04 07:52:25;;;;;;;10.80;7.97;;;;;;;17.50;65.87;95708.97;6153375;23;20166;-81
2021/09/04 07:54:50;;;;;;;9.05;7.82;;;;;;;17.49;66.36;95699.44;6152832;23;20534;-82
2021/09/04 07:57:16;;;;;;;7.95;6.85;;;;;;;17.57;65.86;95701.94;6153584;23;20231;-83
2021/09/04 07:59:41;;;;;;;8.05;7.03;;;;;;;17.77;65.46;95703.00;6153700;23;20185;-82
2021/09/04 08:02:06;;;;;;;9.45;7.10;;;;;;;17.82;63.72;95703.22;6128507;23;20217;-82
2021/09/04 08:04:32;;;;;;;9.27;7.45;;;;;;;17.87;63.61;95701.88;6127796;23;20183;-82
2021/09/04 08:06:57;;;;;;;9.23;7.05;;;;;;;18.07;62.79;95708.91;6154475;23;20150;-81
2021/09/04 08:09:22;;;;;;;8.55;7.15;;;;;;;18.16;62.97;95712.22;6153933;23;20251;-82
2021/09/04 08:11:48;;;;;;;8.77;7.07;;;;;;;18.24;61.47;95717.34;6154447;23;20491;-81
2021/09/04 08:14:13;;;;;;;7.55;6.85;;;;;;;18.21;61.40;95712.47;6152748;23;20569;-81
2021/09/04 08:16:38;;;;;;;8.65;7.50;;;;;;;18.28;61.64;95720.38;6154311;23;20179;-82
2021/09/04 08:19:04;;;;;;;10.15;6.38;;;;;;;18.34;62.80;95719.63;6154183;23;20163;-81
2021/09/04 08:21:29;;;;;;;7.55;6.47;;;;;;;18.47;62.88;95727.63;6155347;23;20170;-82
2021/09/04 08:23:54;;;;;;;7.72;6.88;;;;;;;18.57;61.99;95722.03;6157455;23;20174;-81
2021/09/04 08:26:20;;;;;;;9.63;7.30;;;;;;;18.63;61.83;95723.84;6157485;23;20601;-81
2021/09/04 08:28:45;;;;;;;9.48;6.90;;;;;;;18.75;61.65;95730.25;6154129;23;20210;-81
2021/09/04 08:31:10;;;;;;;7.07;6.38;;;;;;;18.84;62.73;95733.53;6153283;23;20156;-81
2021/09/04 08:33:36;;;;;;;6.75;6.10;;;;;;;18.67;64.16;95733.03;6153879;23;20159;-81
2021/09/04 08:36:01;;;;;;;7.60;6.90;;;;;;;18.79;64.01;95736.72;6156749;23;20183;-81
2021/09/04 08:38:26;;;;;;;10.32;7.70;;;;;;;18.78;63.55;95731.66;6155753;23;20166;-81
2021/09/04 08:40:53;;;;;;;9.23;6.78;;;;;;;18.83;64.26;95735.34;6155719;23;20780;-81
2021/09/04 08:43:19;;;;;;;7.85;7.05;;;;;;;18.93;63.68;95735.81;6130503;23;20166;-81
2021/09/04 08:45:45;;;;;;;7.18;6.35;;;;;;;18.81;64.75;95745.25;6154849;23;20179;-81
2021/09/04 08:48:10;;;;;;;8.15;7.20;;;;;;;18.81;64.79;95742.59;6155733;23;20155;-81
2021/09/04 08:50:36;;;;;;;7.55;6.85;;;;;;;19.06;65.24;95744.78;6155242;23;20159;-81
2021/09/04 08:53:02;;;;;;;7.20;6.50;;;;;;;19.12;63.91;95744.00;6157086;23;20166;-81
2021/09/04 08:55:28;;;;;;;7.93;6.68;;;;;;;19.12;61.33;95741.38;6154839;23;20201;-81
2021/09/04 08:57:55;;;;;;;8.73;6.53;;;;;;;19.22;62.35;95745.25;6130819;23;20459;-81
2021/09/04 09:00:38;;;;;;;8.18;7.32;;;;;;;19.22;62.46;95744.44;6155426;23;20168;-81
2021/09/04 09:03:03;;;;;;;8.55;6.78;;;;;;;19.38;63.31;95746.72;6155317;23;20148;-81
2021/09/04 09:05:41;;;;;;;7.43;6.03;;;;;;;19.63;60.87;95748.88;6154055;23;20251;-81
2021/09/04 09:08:14;;;;;;;7.13;6.43;;;;;;;19.74;60.77;95749.09;6154738;23;20178;-81
2021/09/04 09:10:40;;;;;;;8.65;7.55;;;;;;;19.82;59.33;95748.09;6154971;23;20592;-81
2021/09/04 09:13:05;;;;;;;9.05;7.47;;;;;;;19.72;59.40;95752.94;6154576;23;20151;-81
2021/09/04 09:15:37;;;;;;;8.68;7.32;;;;;;;19.93;60.43;95750.13;6154783;23;20560;-81
2021/09/04 09:18:07;;;;;;;8.10;7.10;;;;;;;20.02;57.43;95745.50;6130482;23;20179;-81
2021/09/04 09:20:34;;;;;;;7.05;6.35;;;;;;;19.99;57.88;95741.44;6130134;23;20210;-81
2021/09/04 09:23:07;;;;;;;7.05;6.00;;;;;;;20.20;57.05;95737.78;6129768;23;20593;-82
2021/09/04 09:25:33;;;;;;;7.28;6.13;;;;;;;20.24;54.24;95740.84;6153677;23;20183;-82
2021/09/04 09:28:10;;;;;;;8.82;7.55;;;;;;;20.21;57.14;95738.59;6130747;23;20159;-81
2021/09/04 09:30:49;;;;;;;7.65;6.47;;;;;;;20.43;51.63;95750.59;6154417;23;20487;-81
2021/09/04 09:33:16;;;;;;;6.57;5.90;;;;;;;20.45;55.21;95747.75;6156112;23;20147;-81
2021/09/04 09:35:46;;;;;;;6.82;6.13;;;;;;;20.52;54.49;95751.22;6128946;23;20274;-81
2021/09/04 09:38:14;;;;;;;6.60;5.72;;;;;;;20.64;51.62;95749.56;6155366;23;20147;-81
2021/09/04 09:40:40;;;;;;;7.63;5.78;;;;;;;20.81;51.55;95744.66;6130096;23;20215;-81
2021/09/04 09:43:33;;;;;;;7.43;6.40;;;;;;;20.61;52.14;95740.25;6129636;23;20285;-81
2021/09/04 09:46:08;;;;;;;6.97;6.28;;;;;;;20.49;52.40;95743.69;6153466;23;20191;-81
2021/09/04 09:48:35;;;;;;;7.90;5.90;;;;;;;20.63;53.04;95743.47;6154768;23;20147;-81
2021/09/04 09:51:05;;;;;;;6.78;5.28;;;;;;;20.72;50.69;95735.34;6154877;23;20156;-82
2021/09/04 09:53:30;;;;;;;6.13;5.53;;;;;;;20.89;49.44;95750.53;6154586;23;20164;-81
2021/09/04 09:55:58;;;;;;;6.55;5.70;;;;;;;20.98;50.29;95739.75;6154420;23;20190;-82
2021/09/04 09:58:25;;;;;;;6.22;5.63;;;;;;;20.89;49.04;95744.44;6130436;23;20249;-81
2021/09/04 10:00:54;;;;;;;9.85;6.50;;;;;;;20.98;50.79;95745.03;6154995;23;20250;-81
2021/09/04 10:03:20;;;;;;;8.57;6.22;;;;;;;20.95;47.76;95745.47;6156261;23;20489;-81
2021/09/04 10:05:46;;;;;;;7.20;5.95;;;;;;;20.72;46.30;95749.34;6154387;23;20279;-81
2021/09/04 10:08:16;;;;;;;8.52;5.35;;;;;;;20.83;48.53;95745.28;6154623;23;20507;-81
2021/09/04 10:10:43;;;;;;;7.43;6.00;;;;;;;20.69;50.43;95741.84;6156028;23;20162;-82
2021/09/04 10:13:08;;;;;;;8.07;6.50;;;;;;;20.89;50.58;95739.16;6153870;23;20155;-81
2021/09/04 10:15:38;;;;;;;7.47;6.45;;;;;;;20.83;48.33;95738.16;6152342;23;20242;-82
2021/09/04 10:18:07;;;;;;;7.85;6.43;;;;;;;20.81;51.09;95728.84;6153934;23;20622;-82
2021/09/04 10:20:35;;;;;;;7.57;6.20;;;;;;;20.92;49.95;95741.38;6154298;23;20162;-81
2021/09/04 10:23:21;;;;;;;6.90;6.15;;;;;;;20.93;51.12;95738.53;6154418;23;20163;-81
2021/09/04 10:25:47;;;;;;;6.70;5.60;;;;;;;20.86;50.64;95737.75;6152932;23;20179;-81
2021/09/04 10:28:12;;;;;;;7.57;6.30;;;;;;;21.03;49.47;95738.13;6128764;23;20179;-82
2021/09/04 10:30:43;;;;;;;8.48;6.53;;;;;;;21.14;48.55;95732.19;6153852;23;20162;-81
2021/09/04 10:33:14;;;;;;;7.32;5.95;;;;;;;21.16;48.44;95731.97;6153948;23;20617;-81
2021/09/04 10:35:48;;;;;;;6.25;5.65;;;;;;;21.22;47.97;95731.16;6153165;23;20171;-81
2021/09/04 10:38:19;;;;;;;8.98;6.25;;;;;;;21.08;49.13;95732.22;6156302;23;20154;-81
2021/09/04 10:40:46;;;;;;;9.68;6.22;;;;;;;21.07;47.62;95734.03;6155312;23;20238;-81
2021/09/04 10:43:15;;;;;;;9.85;6.22;;;;;;;20.99;49.50;95728.19;6154110;23;20159;-82
2021/09/04 10:45:44;;;;;;;8.77;6.15;;;;;;;21.25;48.92;95729.91;6153252;23;20175;-81
2021/09/04 10:48:17;;;;;;;7.43;5.93;;;;;;;21.35;47.47;95730.31;6153888;23;20155;-81
2021/09/04 10:51:03;;;;;;;8.07;6.32;;;;;;;21.33;47.29;95729.72;6153764;23;20163;-82
2021/09/04 10:53:46;;;;;;;6.40;5.30;;;;;;;21.25;49.82;95722.00;6157727;23;20140;-83
2021/09/04 10:56:25;;;;;;;7.78;6.05;;;;;;;21.28;50.13;95719.75;6169049;23;20187;-83
2021/09/04 10:58:52;;;;;;;7.03;6.25;;;;;;;21.21;47.90;95722.41;6155938;23;20219;-82
2021/09/04 11:01:36;;;;;;;8.05;5.78;;;;;;;21.36;48.69;95721.34;6153911;23;20159;-82
2021/09/04 11:04:01;;;;;;;9.80;6.25;;;;;;;21.36;47.05;95724.81;6155794;23;20644;-83
2021/09/04 11:06:27;;;;;;;7.03;6.22;;;;;;;21.30;46.27;95727.50;6154871;23;20155;-82
2021/09/04 11:08:54;;;;;;;6.70;5.72;;;;;;;21.39;47.75;95720.97;6153705;23;20155;-82
2021/09/04 11:11:29;;;;;;;7.55;6.10;;;;;;;21.45;46.75;95712.97;6153504;23;20155;-82
2021/09/04 11:14:14;;;;;;;7.70;6.18;;;;;;;21.33;47.98;95719.16;6151626;23;20707;-82
2021/09/04 11:16:39;;;;;;;7.10;6.20;;;;;;;21.02;48.60;95720.63;6155249;23;20467;-82
2021/09/04 11:19:27;;;;;;;8.75;6.03;;;;;;;21.36;48.01;95716.06;6154656;23;20152;-82
2021/09/04 11:21:54;;;;;;;8.00;7.03;;;;;;;21.17;47.46;95715.91;6129250;23;20186;-82
2021/09/04 11:24:30;;;;;;;8.63;6.53;;;;;;;21.20;48.35;95718.16;6153972;23;20178;-82
2021/09/04 11:26:58;;;;;;;7.22;6.40;;;;;;;21.27;46.94;95717.34;6154393;23;20152;-82
2021/09/04 11:29:25;;;;;;;8.55;6.60;;;;;;;21.44;47.34;95716.66;6153474;23;20246;-81